Time;durP1;ratioP1;P1;durP2;ratioP2;P2;SDS_P1;SDS_P2;PMS_P1;PMS_P2;Temp;Humidity;BMP_temperature;BMP_pressure;BME280_temperature;BME280_humidity;BME280_pressure;Samples;Min_cycle;Max_cycle;Signal;HPM_P1;HPM_P2
2022/06/12 00:18:12;;;;;;;5.65;2.60;;;13.50;99.90;;;;;;6308778;22;20015;-89
2022/06/12 00:20:38;;;;;;;5.40;2.40;;;13.50;99.90;;;;;;6257043;22;20448;-90
2022/06/12 00:23:10;;;;;;;3.65;1.45;;;13.50;99.90;;;;;;6282499;22;20021;-90
2022/06/12 00:25:36;;;;;;;2.90;1.00;;;13.50;99.90;;;;;;6256828;22;20292;-90
2022/06/12 00:28:02;;;;;;;3.30;1.40;;;13.50;99.90;;;;;;6257196;22;20153;-92
2022/06/12 00:30:43;;;;;;;;;;;13.50;99.90;;;;;;6257179;22;20101;-92
2022/06/12 00:37:03;;;;;;;4.28;0.98;;;13.50;99.90;;;;;;6293212;22;20069;-93
2022/06/12 00:39:31;;;;;;;3.33;0.98;;;13.40;99.90;;;;;;6257494;22;20011;-92
2022/06/12 00:42:03;;;;;;;4.85;0.95;;;13.40;99.90;;;;;;6256962;22;20582;-91
2022/06/12 00:44:42;;;;;;;3.80;1.05;;;13.40;99.90;;;;;;6259048;22;20094;-92
2022/06/12 00:47:27;;;;;;;2.97;0.93;;;13.40;99.90;;;;;;6257332;22;20015;-89
2022/06/12 00:50:00;;;;;;;3.55;0.73;;;13.30;99.90;;;;;;6256180;22;20019;-91
2022/06/12 00:52:56;;;;;;;1.85;0.80;;;13.30;99.90;;;;;;6256956;22;20094;-90
2022/06/12 00:55:46;;;;;;;5.43;0.80;;;13.30;99.90;;;;;;6256829;22;20165;-93
2022/06/12 01:34:39;;;;;;;4.75;1.67;;;12.70;99.90;;;;;;6308101;22;20035;-89
2022/06/12 01:37:22;;;;;;;5.82;1.98;;;12.70;99.90;;;;;;6256164;22;20061;-90
2022/06/12 01:40:12;;;;;;;6.47;1.83;;;12.70;99.90;;;;;;6256126;22;20015;-90
2022/06/12 01:43:10;;;;;;;3.67;1.45;;;12.70;99.90;;;;;;6256437;22;20073;-90
2022/06/12 01:45:50;;;;;;;8.07;2.33;;;12.70;99.90;;;;;;6256446;22;20100;-89
2022/06/12 01:48:54;;;;;;;;;;;;;;;;;;;;;
2022/06/12 02:15:00;;;;;;;3.45;1.30;;;12.80;99.90;;;;;;6216475;22;20020;-89
2022/06/12 02:17:35;;;;;;;5.18;1.17;;;12.90;99.90;;;;;;6190068;23;20505;-89
2022/06/12 02:20:06;;;;;;;2.45;1.00;;;12.90;99.90;;;;;;6190263;23;20019;-91
2022/06/12 02:22:38;;;;;;;2.70;0.70;;;13.00;99.90;;;;;;6189955;23;20405;-89
2022/06/12 02:25:15;;;;;;;3.67;1.42;;;13.00;99.90;;;;;;6189475;23;20028;-90
2022/06/12 03:09:13;;;;;;;2.58;1.15;;;12.70;99.90;;;;;;6216668;22;20017;-90
2022/06/12 03:11:42;;;;;;;4.13;1.30;;;12.70;99.90;;;;;;6165039;23;20050;-89
2022/06/12 03:14:12;;;;;;;2.85;0.90;;;12.70;99.90;;;;;;6164879;23;20048;-89
2022/06/12 03:16:42;;;;;;;3.90;1.20;;;12.60;99.90;;;;;;6165537;23;20353;-90
2022/06/12 03:19:14;;;;;;;3.80;1.27;;;12.60;99.90;;;;;;6164606;23;20417;-92
2022/06/12 03:22:01;;;;;;;2.42;0.90;;;12.60;99.90;;;;;;6165219;23;20068;-89
2022/06/12 03:24:27;;;;;;;3.03;0.90;;;12.60;99.90;;;;;;6165030;23;20021;-91
2022/06/12 03:27:15;;;;;;;2.57;0.80;;;12.60;99.90;;;;;;6165062;23;20013;-89
2022/06/12 03:30:05;;;;;;;3.22;0.82;;;12.70;99.90;;;;;;6165155;23;20152;-91
2022/06/12 03:33:18;;;;;;;1.90;0.85;;;12.60;99.90;;;;;;6165053;23;20016;-90
2022/06/12 03:35:54;;;;;;;2.70;0.80;;;12.60;99.90;;;;;;6071723;23;20059;-92
2022/06/12 03:38:47;;;;;;;3.28;1.00;;;12.60;99.90;;;;;;6071543;23;20014;-92
2022/06/12 03:42:11;;;;;;;2.42;0.88;;;12.70;99.90;;;;;;6142936;23;20400;-91
2022/06/12 03:45:07;;;;;;;3.78;0.90;;;12.60;99.90;;;;;;6047157;23;20519;-89
2022/06/12 03:53:59;;;;;;;1.52;0.80;;;12.60;99.90;;;;;;6261500;22;20466;-89
2022/06/12 03:59:41;;;;;;;2.33;0.80;;;12.70;99.90;;;;;;6282754;22;20022;-90
2022/06/12 04:02:53;;;;;;;;;;;12.80;99.90;;;;;;6282658;22;20444;-90
2022/06/12 04:05:24;;;;;;;3.42;0.85;;;12.70;99.90;;;;;;6257314;22;19921;-89
2022/06/12 04:07:52;;;;;;;2.20;0.60;;;12.80;99.90;;;;;;6257029;22;20015;-89
2022/06/12 04:10:30;;;;;;;3.20;0.98;;;12.80;99.90;;;;;;6257452;22;20463;-90
2022/06/12 04:12:57;;;;;;;4.78;0.90;;;12.90;99.90;;;;;;6256647;22;20073;-90
2022/06/12 04:21:00;;;;;;;5.75;1.52;;;13.10;99.90;;;;;;6309214;22;20314;-90
2022/06/12 04:26:34;;;;;;;4.03;0.85;;;13.40;99.90;;;;;;6233772;22;20027;-89
2022/06/12 04:29:11;;;;;;;3.63;0.88;;;13.50;99.90;;;;;;6256515;22;20441;-89
2022/06/12 04:31:41;;;;;;;2.80;0.70;;;13.60;99.90;;;;;;6256709;22;20015;-91
2022/06/12 04:34:12;;;;;;;3.00;0.82;;;13.70;99.90;;;;;;6282078;22;20015;-90
2022/06/12 04:36:38;;;;;;;2.80;0.82;;;13.80;99.90;;;;;;6256609;22;20019;-91
2022/06/12 04:39:05;;;;;;;5.82;0.80;;;13.80;99.90;;;;;;6257235;22;20090;-90
2022/06/12 04:41:35;;;;;;;3.40;0.75;;;13.90;99.90;;;;;;6258655;22;20011;-87
2022/06/12 04:44:10;;;;;;;3.03;0.82;;;14.10;99.90;;;;;;6272598;22;20071;-90
2022/06/12 04:47:15;;;;;;;5.40;1.00;;;14.10;99.90;;;;;;6260338;22;20011;-89
2022/06/12 04:58:22;;;;;;;3.65;0.82;;;14.40;99.90;;;;;;6266382;22;20023;-90
2022/06/12 05:00:57;;;;;;;3.00;0.90;;;14.50;99.90;;;;;;6225658;22;20018;-91
2022/06/12 05:03:28;;;;;;;4.68;0.98;;;14.50;99.90;;;;;;6225112;22;20475;-92
2022/06/12 05:06:10;;;;;;;5.70;1.30;;;14.60;99.90;;;;;;6225786;22;20341;-93
2022/06/12 05:14:32;;;;;;;5.07;0.80;;;14.70;99.90;;;;;;6274164;22;20030;-91
2022/06/12 05:17:03;;;;;;;2.00;0.60;;;14.80;99.90;;;;;;6251887;22;20016;-92
2022/06/12 05:20:07;;;;;;;3.30;0.70;;;15.10;99.90;;;;;;6251198;22;20278;-88
2022/06/12 05:22:32;;;;;;;3.85;0.80;;;15.30;99.90;;;;;;6248991;22;20145;-88
2022/06/12 05:24:58;;;;;;;2.17;0.50;;;15.20;99.90;;;;;;6250483;22;20039;-88
2022/06/12 05:27:24;;;;;;;3.67;1.10;;;15.30;99.90;;;;;;6250483;22;20036;-91
2022/06/12 05:45:25;;;;;;;5.05;1.95;;;15.70;99.90;;;;;;6241346;22;20021;-91
2022/06/12 05:47:54;;;;;;;5.20;1.20;;;15.70;99.90;;;;;;6190530;23;20358;-90
2022/06/12 05:50:22;;;;;;;4.70;0.90;;;15.80;99.90;;;;;;6190134;23;20319;-93
2022/06/12 05:52:49;;;;;;;4.88;1.52;;;15.80;99.90;;;;;;6190250;23;20015;-93
2022/06/12 05:55:15;;;;;;;5.53;0.98;;;15.80;99.90;;;;;;6190464;23;20017;-93
2022/06/12 05:57:50;;;;;;;3.35;0.90;;;16.00;99.90;;;;;;6190180;23;20013;-93
2022/06/12 06:00:22;;;;;;;3.95;1.00;;;16.00;99.90;;;;;;6190059;23;20017;-94
2022/06/12 06:02:48;;;;;;;4.70;1.20;;;16.10;99.90;;;;;;6190668;23;20059;-95
2022/06/12 06:05:15;;;;;;;4.97;1.20;;;16.30;99.90;;;;;;6190684;23;20009;-93
2022/06/12 06:07:41;;;;;;;;;;;16.30;99.90;;;;;;6190770;23;20020;-94
2022/06/12 06:10:11;;;;;;;2.90;0.98;;;16.40;99.90;;;;;;6190283;23;19938;-92
2022/06/12 06:12:37;;;;;;;3.70;1.40;;;16.50;99.90;;;;;;6190280;23;20473;-93
2022/06/12 06:15:03;;;;;;;5.68;1.15;;;16.70;99.90;;;;;;6190505;23;20020;-93
2022/06/12 06:18:24;;;;;;;4.85;1.55;;;16.90;99.90;;;;;;6215246;23;20064;-93
2022/06/12 06:20:51;;;;;;;5.22;1.13;;;17.00;99.90;;;;;;6100461;23;20081;-93
2022/06/12 06:23:17;;;;;;;2.70;0.90;;;17.60;99.90;;;;;;6088571;23;20065;-93
2022/06/12 06:36:55;;;;;;;3.53;1.20;;;18.00;99.90;;;;;;6216569;22;20027;-90
2022/06/12 06:39:21;;;;;;;5.13;1.10;;;18.00;99.90;;;;;;6190167;23;20450;-90
2022/06/12 06:41:46;;;;;;;8.25;1.48;;;18.00;99.90;;;;;;6190340;23;20048;-91
2022/06/12 06:46:57;;;;;;;7.35;1.27;;;17.80;99.90;;;;;;6217279;23;20074;-89
2022/06/12 06:49:22;;;;;;;3.63;1.00;;;17.80;99.90;;;;;;6205447;23;20000;-89
2022/06/12 06:51:49;;;;;;;6.47;1.52;;;17.90;99.90;;;;;;6205634;23;20019;-89
2022/06/12 06:54:16;;;;;;;6.53;1.42;;;18.00;99.90;;;;;;6190002;23;20052;-89
2022/06/12 06:56:42;;;;;;;4.53;1.27;;;18.10;99.90;;;;;;6189962;23;20047;-90
2022/06/12 06:59:08;;;;;;;3.90;1.08;;;18.20;99.90;;;;;;6189917;23;20016;-91
2022/06/12 07:01:34;;;;;;;4.90;1.40;;;18.50;99.90;;;;;;6189679;23;20024;-93
2022/06/12 07:04:01;;;;;;;6.55;1.60;;;18.90;99.90;;;;;;6190132;23;20012;-92
2022/06/12 07:06:27;;;;;;;3.40;0.90;;;19.20;99.90;;;;;;6189959;23;20446;-90
2022/06/12 07:08:55;;;;;;;5.25;1.30;;;19.30;99.90;;;;;;6189962;23;20060;-92
2022/06/12 07:11:23;;;;;;;7.85;1.77;;;19.50;99.90;;;;;;6189713;23;20397;-92
2022/06/12 07:13:50;;;;;;;6.32;1.63;;;19.50;99.90;;;;;;6189863;23;20017;-93
2022/06/12 07:16:15;;;;;;;;;;;19.50;99.90;;;;;;6190190;23;20052;-92
2022/06/12 07:18:42;;;;;;;4.03;1.00;;;19.60;99.90;;;;;;6189597;23;19945;-91
2022/06/12 07:21:09;;;;;;;2.53;1.08;;;19.40;99.90;;;;;;6189710;23;20035;-91
2022/06/12 07:23:34;;;;;;;4.95;1.35;;;19.20;99.90;;;;;;6215274;22;20122;-90
2022/06/12 07:26:08;;;;;;;4.65;1.13;;;19.40;99.90;;;;;;6195726;23;20457;-89
2022/06/12 07:28:37;;;;;;;5.32;1.20;;;19.70;99.90;;;;;;6221059;23;20346;-90
2022/06/12 07:31:05;;;;;;;3.83;1.13;;;20.00;99.90;;;;;;6195838;23;20051;-90
2022/06/12 07:33:31;;;;;;;6.40;1.60;;;20.20;99.90;;;;;;6195981;23;20012;-90
2022/06/12 07:35:57;;;;;;;6.80;1.23;;;20.30;99.90;;;;;;6221102;23;20477;-90
2022/06/12 07:38:26;;;;;;;6.30;1.40;;;20.30;99.90;;;;;;6195920;23;20016;-90
2022/06/12 07:40:58;;;;;;;5.47;1.20;;;20.30;99.90;;;;;;6195897;23;20016;-90
2022/06/12 07:43:27;;;;;;;3.80;1.08;;;20.10;99.90;;;;;;6195731;23;20095;-91
2022/06/12 07:45:53;;;;;;;4.35;1.20;;;20.00;99.90;;;;;;6195973;23;20511;-91
2022/06/12 07:48:21;;;;;;;3.92;1.02;;;19.80;99.90;;;;;;6196269;23;20012;-89
2022/06/12 07:50:48;;;;;;;2.90;0.93;;;19.80;99.90;;;;;;6195575;23;20025;-91
2022/06/12 07:53:23;;;;;;;3.55;0.80;;;19.70;99.90;;;;;;6196232;23;20028;-89
2022/06/12 07:55:52;;;;;;;4.93;1.52;;;19.60;99.90;;;;;;6195827;23;20023;-90
2022/06/12 07:59:02;;;;;;;5.03;1.10;;;19.50;99.90;;;;;;6195812;23;20444;-90
2022/06/12 08:01:31;;;;;;;5.63;1.15;;;19.30;99.90;;;;;;6195539;23;20017;-91
2022/06/12 08:03:57;;;;;;;3.92;1.00;;;19.30;99.90;;;;;;6195550;23;20019;-89
2022/06/12 08:06:44;;;;;;;4.55;0.93;;;19.20;99.90;;;;;;6195499;23;20020;-91
2022/06/12 08:09:34;;;;;;;4.55;0.93;;;19.30;99.90;;;;;;6196137;23;20070;-91
2022/06/12 08:12:25;;;;;;;5.05;0.82;;;19.30;99.90;;;;;;6196064;23;20020;-88
2022/06/12 08:14:50;;;;;;;3.28;1.13;;;19.30;99.90;;;;;;6220761;23;20012;-87
2022/06/12 08:17:16;;;;;;;3.58;0.93;;;19.30;99.90;;;;;;6196146;23;20488;-89
2022/06/12 08:22:26;;;;;;;5.22;1.10;;;19.40;99.90;;;;;;6220871;23;20027;-88
2022/06/12 08:24:51;;;;;;;3.75;1.00;;;19.30;99.90;;;;;;6195689;23;20016;-91
2022/06/12 08:27:17;;;;;;;2.75;0.70;;;19.40;99.90;;;;;;6196086;23;20048;-92
2022/06/12 08:29:43;;;;;;;5.30;1.08;;;19.30;99.90;;;;;;6196369;23;20035;-92
2022/06/12 08:32:16;;;;;;;2.13;0.80;;;19.30;99.90;;;;;;6195951;23;20396;-91
2022/06/12 08:34:59;;;;;;;3.08;0.60;;;19.30;99.90;;;;;;6195457;23;20012;-90
2022/06/12 08:37:32;;;;;;;6.55;1.20;;;19.30;99.90;;;;;;6195878;23;20016;-91
2022/06/12 08:39:59;;;;;;;3.75;0.95;;;19.30;99.90;;;;;;6196279;23;20018;-93
2022/06/12 08:42:31;;;;;;;3.50;0.80;;;19.20;99.90;;;;;;6196202;23;20016;-96
2022/06/12 08:45:12;;;;;;;6.45;0.77;;;19.20;99.90;;;;;;6196252;23;20016;-92
2022/06/12 08:48:01;;;;;;;3.25;0.90;;;19.20;99.90;;;;;;6197017;23;20028;-93
2022/06/12 08:50:56;;;;;;;3.03;0.82;;;19.20;99.90;;;;;;6180170;23;20020;-91
2022/06/12 08:53:34;;;;;;;2.75;0.85;;;19.10;99.90;;;;;;6092018;23;20142;-91
2022/06/12 08:56:08;;;;;;;3.63;0.90;;;19.00;99.90;;;;;;6195843;23;20016;-92
2022/06/12 08:58:48;;;;;;;2.40;0.80;;;19.00;99.90;;;;;;6195629;23;20078;-91
2022/06/12 09:01:14;;;;;;;4.25;0.95;;;18.90;99.90;;;;;;6195959;23;20016;-92
2022/06/12 09:03:44;;;;;;;4.93;0.82;;;18.80;99.90;;;;;;6195862;23;20019;-92
2022/06/12 09:06:34;;;;;;;4.10;0.80;;;18.80;99.90;;;;;;6195551;23;20385;-90
2022/06/12 09:09:07;;;;;;;2.28;1.00;;;18.80;99.90;;;;;;6195564;23;20051;-93
2022/06/12 09:11:40;;;;;;;3.28;0.90;;;18.80;99.90;;;;;;6195475;23;20023;-93
2022/06/12 09:14:27;;;;;;;4.20;0.80;;;18.90;99.90;;;;;;6195929;23;20023;-93
2022/06/12 09:17:09;;;;;;;4.55;1.00;;;18.90;99.90;;;;;;6195664;23;20016;-93
2022/06/12 09:20:07;;;;;;;4.38;0.93;;;19.00;99.90;;;;;;6195636;23;20027;-93
2022/06/12 09:22:40;;;;;;;2.80;0.82;;;19.00;99.90;;;;;;6195474;23;20410;-92
2022/06/12 09:25:15;;;;;;;2.83;0.90;;;19.00;99.90;;;;;;6187468;23;20020;-93
2022/06/12 09:27:44;;;;;;;3.65;1.15;;;19.00;99.90;;;;;;6195663;23;20021;-93
2022/06/12 09:30:18;;;;;;;4.93;1.00;;;18.90;99.90;;;;;;6218062;23;20004;-91
2022/06/12 09:32:54;;;;;;;2.75;0.98;;;18.90;99.90;;;;;;6201274;23;20100;-93
2022/06/12 09:35:55;;;;;;;4.22;0.90;;;18.90;99.90;;;;;;6190751;23;20020;-95
2022/06/12 09:38:50;;;;;;;2.53;1.15;;;18.90;99.90;;;;;;6190893;23;20016;-93
2022/06/12 09:41:19;;;;;;;4.93;0.90;;;18.80;99.90;;;;;;6190840;23;20020;-94
2022/06/12 09:44:18;;;;;;;5.82;1.17;;;18.80;99.90;;;;;;6190619;23;20047;-95
2022/06/12 09:47:25;;;;;;;4.50;1.00;;;18.70;99.90;;;;;;6190649;23;20048;-95
2022/06/12 09:50:06;;;;;;;5.13;1.50;;;18.80;99.90;;;;;;6132835;23;20017;-92
2022/06/12 09:52:41;;;;;;;5.43;1.42;;;18.90;99.90;;;;;;6190689;23;20067;-94
2022/06/12 09:55:22;;;;;;;3.90;0.70;;;19.00;99.90;;;;;;6190487;23;20017;-92
2022/06/12 09:58:20;;;;;;;4.50;0.93;;;19.10;99.90;;;;;;6190350;23;20078;-91
2022/06/12 10:00:51;;;;;;;;;;;19.20;99.90;;;;;;6190814;23;20048;-94
2022/06/12 10:03:45;;;;;;;3.65;0.80;;;19.20;99.90;;;;;;6190364;23;19970;-92
2022/06/12 10:06:26;;;;;;;4.32;1.13;;;19.20;99.90;;;;;;6190314;23;20024;-95
2022/06/12 10:09:08;;;;;;;3.58;0.80;;;19.20;99.90;;;;;;6190158;23;20020;-92
2022/06/12 10:12:02;;;;;;;2.55;0.60;;;19.10;99.90;;;;;;6190229;23;20442;-93
2022/06/12 10:14:38;;;;;;;2.60;0.60;;;19.20;99.90;;;;;;6189440;23;20020;-95
2022/06/12 10:17:37;;;;;;;1.83;0.47;;;19.30;99.90;;;;;;6190322;23;20013;-94
2022/06/12 10:25:47;;;;;;;2.60;0.60;;;19.90;99.90;;;;;;6305151;22;20023;-94
2022/06/12 10:28:29;;;;;;;4.22;0.73;;;19.90;99.90;;;;;;6123685;22;20071;-95
2022/06/12 10:31:10;;;;;;;1.58;0.50;;;19.90;99.90;;;;;;6255535;22;20022;-94
2022/06/12 10:34:22;;;;;;;2.22;0.80;;;19.90;99.90;;;;;;6255307;22;20026;-92
2022/06/12 10:37:11;;;;;;;1.73;0.60;;;20.00;99.90;;;;;;6105131;23;20049;-94
2022/06/12 10:45:33;;;;;;;2.85;0.93;;;20.30;99.90;;;;;;6215488;22;20028;-88
2022/06/12 10:48:05;;;;;;;1.75;0.60;;;20.50;99.90;;;;;;6232968;22;20059;-89
2022/06/12 10:51:05;;;;;;;1.77;0.60;;;20.60;99.90;;;;;;6214669;23;20065;-93
2022/06/12 10:53:40;;;;;;;2.78;0.60;;;20.80;99.90;;;;;;6189547;23;20406;-91
2022/06/12 10:56:35;;;;;;;2.03;0.57;;;20.80;99.90;;;;;;6189700;23;20009;-91
2022/06/12 10:59:27;;;;;;;1.70;0.50;;;20.90;99.90;;;;;;6212262;23;20091;-90
2022/06/12 11:02:04;;;;;;;2.33;0.80;;;20.90;99.90;;;;;;6190134;23;20016;-90
2022/06/12 11:04:47;;;;;;;1.85;0.47;;;21.10;99.90;;;;;;6189980;23;20113;-91
2022/06/12 11:07:28;;;;;;;4.47;0.68;;;21.10;99.90;;;;;;6189301;23;20091;-93
2022/06/12 11:10:06;;;;;;;2.30;0.57;;;21.00;99.80;;;;;;6189823;23;20469;-88
2022/06/12 11:12:32;;;;;;;1.92;0.70;;;20.90;99.90;;;;;;6215386;23;20048;-95
2022/06/12 11:20:30;;;;;;;2.38;0.57;;;20.90;99.90;;;;;;6234921;22;20021;-96
2022/06/12 11:23:31;;;;;;;3.03;0.60;;;20.80;99.90;;;;;;6194600;23;20066;-92
2022/06/12 11:25:59;;;;;;;3.05;0.82;;;20.70;99.90;;;;;;6195598;23;20020;-94
2022/06/12 11:28:54;;;;;;;1.30;0.40;;;20.70;99.90;;;;;;6196379;23;20100;-96
2022/06/12 11:32:14;;;;;;;;;;;;;;;;;;;;;
2022/06/12 11:42:33;;;;;;;2.17;0.60;;;21.20;99.10;;;;;;6292257;22;20517;-92
2022/06/12 11:45:05;;;;;;;2.05;0.60;;;21.30;99.10;;;;;;6254638;22;20015;-91
2022/06/12 11:47:55;;;;;;;1.88;0.68;;;21.40;98.90;;;;;;6254951;22;20021;-91
2022/06/12 11:50:35;;;;;;;2.15;0.70;;;21.60;98.00;;;;;;6254835;22;20102;-91
2022/06/12 11:53:06;;;;;;;2.25;0.50;;;21.70;97.10;;;;;;6255013;22;20023;-91
2022/06/12 11:55:40;;;;;;;2.08;0.75;;;21.70;96.80;;;;;;6254983;22;20093;-88
2022/06/12 11:58:26;;;;;;;3.88;0.63;;;21.70;96.90;;;;;;6280309;22;20016;-91
2022/06/12 12:01:14;;;;;;;2.53;0.50;;;21.80;96.90;;;;;;6254935;22;20015;-91
2022/06/12 12:03:59;;;;;;;2.70;0.55;;;21.90;96.80;;;;;;6254726;22;20019;-91
2022/06/12 12:06:34;;;;;;;2.75;0.60;;;21.90;95.80;;;;;;6254699;22;20011;-93
2022/06/12 12:09:20;;;;;;;2.70;0.70;;;21.90;95.50;;;;;;6278650;22;20003;-91
2022/06/12 12:12:00;;;;;;;1.92;0.82;;;22.00;94.10;;;;;;6270954;22;20023;-92
2022/06/12 12:14:33;;;;;;;2.30;0.65;;;22.00;94.90;;;;;;6256763;22;20012;-92
2022/06/12 12:17:10;;;;;;;2.53;0.70;;;22.10;94.50;;;;;;6256493;22;20444;-90
2022/06/12 12:19:56;;;;;;;2.60;0.75;;;22.20;94.40;;;;;;6256639;22;20015;-88
2022/06/12 12:22:38;;;;;;;2.47;0.93;;;22.20;93.90;;;;;;6256432;22;20026;-90
2022/06/12 12:25:23;;;;;;;2.50;0.70;;;22.30;93.30;;;;;;6255677;22;20121;-93
2022/06/12 12:27:55;;;;;;;2.70;0.75;;;22.30;93.20;;;;;;6256326;22;20344;-93
2022/06/12 12:30:34;;;;;;;2.90;0.50;;;22.30;93.20;;;;;;6256155;22;20023;-90
2022/06/12 12:33:03;;;;;;;2.03;0.50;;;22.10;91.90;;;;;;6256230;22;20448;-90
2022/06/12 12:44:13;;;;;;;1.25;0.47;;;22.20;91.10;;;;;;6269269;22;20027;-88
2022/06/12 12:46:51;;;;;;;1.92;0.52;;;22.30;90.60;;;;;;6194013;23;20074;-89
2022/06/12 12:59:48;;;;;;;1.33;0.57;;;22.10;89.70;;;;;;6250128;22;20441;-91
2022/06/12 13:02:29;;;;;;;2.07;0.43;;;22.10;89.30;;;;;;6250889;22;20064;-92
2022/06/12 13:05:11;;;;;;;2.60;0.60;;;22.20;90.40;;;;;;6250033;22;20243;-90
2022/06/12 13:07:55;;;;;;;2.20;0.57;;;22.30;88.70;;;;;;6251170;22;20018;-91
2022/06/12 13:10:57;;;;;;;1.15;0.50;;;22.40;87.70;;;;;;6251012;22;20051;-90
2022/06/12 13:13:38;;;;;;;3.08;0.77;;;22.40;88.90;;;;;;6275513;22;20022;-90
2022/06/12 13:16:39;;;;;;;3.30;1.17;;;22.40;88.20;;;;;;6250828;22;20023;-94
2022/06/12 13:19:28;;;;;;;1.52;0.50;;;22.40;86.30;;;;;;6243861;22;20452;-89
2022/06/12 13:22:13;;;;;;;2.95;0.70;;;22.40;85.90;;;;;;6251811;22;20467;-91
2022/06/12 13:25:15;;;;;;;3.65;0.85;;;22.40;87.30;;;;;;6251709;22;20054;-95
2022/06/12 13:27:52;;;;;;;1.40;0.47;;;22.40;87.10;;;;;;6171381;22;20012;-94
2022/06/12 13:30:38;;;;;;;;;;;22.50;87.40;;;;;;6253938;22;20394;-90
2022/06/12 13:33:28;;;;;;;3.42;0.80;;;22.60;87.50;;;;;;6251643;22;19967;-95
2022/06/12 13:36:06;;;;;;;1.35;0.47;;;22.50;87.00;;;;;;6252101;22;20051;-92
2022/06/12 13:59:47;;;;;;;2.75;0.90;;;21.60;91.60;;;;;;6247049;22;20078;-94
2022/06/12 14:02:40;;;;;;;3.78;0.70;;;21.40;91.80;;;;;;6220336;23;20016;-93
2022/06/12 14:44:09;;;;;;;2.95;1.10;;;21.10;95.40;;;;;;6283122;22;20023;-95
2022/06/12 14:46:34;;;;;;;3.13;0.98;;;21.00;95.10;;;;;;6257410;22;20448;-91
2022/06/12 14:49:00;;;;;;;3.50;0.98;;;20.80;95.20;;;;;;6255531;22;20007;-91
2022/06/12 14:51:29;;;;;;;4.32;1.10;;;20.60;95.10;;;;;;6255438;22;20015;-93
2022/06/12 14:53:55;;;;;;;3.67;0.85;;;20.40;95.60;;;;;;6272856;22;20046;-87
2022/06/12 14:56:23;;;;;;;;;;;20.40;95.40;;;;;;6259613;22;20022;-90
2022/06/12 14:58:50;;;;;;;3.65;1.10;;;20.30;95.70;;;;;;6281139;22;19919;-90
2022/06/12 15:01:18;;;;;;;2.72;0.93;;;20.20;95.90;;;;;;6255408;22;20015;-95
2022/06/12 15:03:49;;;;;;;3.08;1.17;;;20.20;96.60;;;;;;6256677;22;20452;-92
2022/06/12 15:06:15;;;;;;;3.88;1.20;;;20.30;96.10;;;;;;6256382;22;20015;-92
2022/06/12 15:39:07;;;;;;;2.63;1.15;;;19.70;97.90;;;;;;6275576;22;20027;-89
2022/06/12 15:41:54;;;;;;;4.75;2.03;;;19.60;98.10;;;;;;6225661;22;20016;-94
2022/06/12 16:05:04;;;;;;;4.65;0.90;;;19.30;99.30;;;;;;6265318;22;20020;-89
2022/06/12 16:07:30;;;;;;;3.78;1.10;;;19.30;99.60;;;;;;6230179;23;20020;-96
2022/06/12 16:09:55;;;;;;;7.55;1.13;;;19.40;99.60;;;;;;6224110;23;20051;-92
2022/06/12 16:12:21;;;;;;;3.35;0.80;;;19.50;99.20;;;;;;6230343;23;20024;-91
2022/06/12 16:14:48;;;;;;;4.22;1.40;;;19.50;99.50;;;;;;6227400;23;20016;-91
2022/06/12 16:17:17;;;;;;;3.65;0.93;;;19.60;99.30;;;;;;6252053;23;20027;-91
2022/06/12 16:19:43;;;;;;;;;;;19.50;99.20;;;;;;6252652;23;20023;-93
2022/06/12 16:22:08;;;;;;;1.65;0.68;;;19.40;99.10;;;;;;6226390;23;19939;-91
2022/06/12 16:24:34;;;;;;;2.13;0.80;;;19.40;99.30;;;;;;6222977;23;20019;-90
2022/06/12 16:27:04;;;;;;;4.25;0.90;;;19.40;98.80;;;;;;6248961;23;20078;-95
2022/06/12 16:29:30;;;;;;;4.57;0.80;;;19.30;98.60;;;;;;6225835;23;20016;-90
2022/06/12 16:31:56;;;;;;;3.20;0.95;;;19.20;98.70;;;;;;6247941;23;20460;-91
2022/06/12 16:34:22;;;;;;;3.20;1.13;;;19.20;98.00;;;;;;6249606;23;20016;-92
2022/06/12 16:36:52;;;;;;;2.28;0.85;;;19.10;98.00;;;;;;6247945;23;20012;-91
2022/06/12 16:39:18;;;;;;;2.00;0.80;;;19.10;97.50;;;;;;6223620;23;20413;-90
2022/06/12 16:41:46;;;;;;;2.47;0.70;;;19.10;97.20;;;;;;6225880;23;20008;-90
2022/06/12 16:44:13;;;;;;;2.72;0.63;;;19.00;96.80;;;;;;6226135;23;20012;-89
2022/06/12 16:46:43;;;;;;;2.70;0.75;;;19.10;96.90;;;;;;6222401;23;20012;-91
2022/06/12 16:49:14;;;;;;;2.65;0.80;;;19.00;96.60;;;;;;6225283;23;20016;-93
2022/06/12 16:52:04;;;;;;;2.17;0.60;;;19.00;96.60;;;;;;6225745;23;20075;-89
2022/06/12 16:54:35;;;;;;;2.17;0.60;;;19.00;96.70;;;;;;6227857;23;20016;-91
2022/06/12 16:57:02;;;;;;;2.10;0.80;;;19.00;96.80;;;;;;6227457;23;20446;-90
2022/06/12 16:59:29;;;;;;;4.05;0.80;;;19.00;96.60;;;;;;6230208;23;20070;-91
2022/06/12 17:01:55;;;;;;;2.20;0.65;;;19.00;96.20;;;;;;6272742;22;20000;-90
2022/06/12 17:04:22;;;;;;;1.95;0.70;;;19.00;96.30;;;;;;6230537;23;20397;-89
2022/06/12 17:06:48;;;;;;;1.85;0.60;;;19.00;96.40;;;;;;6252407;23;20021;-89
2022/06/12 17:09:15;;;;;;;4.32;0.95;;;19.00;96.30;;;;;;6227095;23;20043;-90
2022/06/12 17:11:42;;;;;;;3.22;0.90;;;19.00;96.20;;;;;;6225075;23;20051;-90
2022/06/12 17:14:10;;;;;;;3.60;0.77;;;19.00;96.10;;;;;;6251217;23;20452;-91
2022/06/12 17:16:36;;;;;;;3.15;0.77;;;19.00;96.00;;;;;;6227550;23;20421;-90
2022/06/12 17:21:47;;;;;;;3.60;0.95;;;18.90;96.30;;;;;;6253500;23;20031;-92
2022/06/12 17:24:13;;;;;;;3.13;1.20;;;18.80;96.10;;;;;;6228443;23;20104;-94
2022/06/12 17:26:39;;;;;;;;;;;18.80;96.60;;;;;;6226404;23;20019;-92
2022/06/12 17:29:05;;;;;;;3.72;0.80;;;18.80;96.40;;;;;;6228351;23;19915;-94
2022/06/12 17:31:37;;;;;;;4.80;0.80;;;18.70;96.90;;;;;;6228572;23;20023;-95
2022/06/12 17:34:08;;;;;;;2.53;0.93;;;18.70;96.70;;;;;;6225339;23;20016;-94
2022/06/12 17:37:06;;;;;;;4.90;0.90;;;18.60;96.80;;;;;;6223001;23;20063;-94
2022/06/12 21:05:23;;;;;;;3.85;1.13;;;15.50;99.90;;;;;;6309767;22;20023;-92
2022/06/12 21:47:26;;;;;;;5.20;1.48;;;14.80;99.90;;;;;;6285404;22;20026;-93
2022/06/12 21:50:21;;;;;;;3.67;1.00;;;14.80;99.90;;;;;;6253013;22;20099;-92
2022/06/12 21:55:39;;;;;;;3.40;1.05;;;14.90;99.90;;;;;;6282038;22;20027;-94
2022/06/12 21:58:06;;;;;;;4.40;1.70;;;14.90;99.90;;;;;;6226501;22;20011;-96
2022/06/12 22:03:08;;;;;;;5.88;1.88;;;15.00;99.90;;;;;;6217773;22;20378;-94
2022/06/12 22:05:34;;;;;;;3.03;1.10;;;15.00;99.90;;;;;;6194273;23;20027;-96
2022/06/12 22:08:05;;;;;;;3.08;1.08;;;15.00;99.90;;;;;;6195711;23;20095;-94
2022/06/12 22:10:30;;;;;;;3.97;1.40;;;15.00;99.90;;;;;;6194822;23;20016;-94
2022/06/12 22:18:09;;;;;;;4.05;1.63;;;15.00;99.90;;;;;;6222653;22;20392;-93
2022/06/12 22:20:40;;;;;;;4.60;1.25;;;15.00;99.90;;;;;;6191565;23;20020;-93
2022/06/12 22:23:09;;;;;;;5.38;1.45;;;15.00;99.90;;;;;;6192065;23;20016;-93
2022/06/12 22:25:35;;;;;;;5.72;1.50;;;15.00;99.90;;;;;;6191263;23;20019;-93
2022/06/12 22:28:01;;;;;;;6.63;1.80;;;15.00;99.90;;;;;;6191617;23;20099;-95
2022/06/12 22:30:28;;;;;;;5.43;1.45;;;15.00;99.90;;;;;;6198306;23;20012;-93
2022/06/12 22:32:54;;;;;;;5.55;1.48;;;15.00;99.90;;;;;;6200221;23;20032;-90
2022/06/12 22:35:20;;;;;;;5.93;1.50;;;15.00;99.90;;;;;;6215812;23;20028;-90
2022/06/12 22:37:45;;;;;;;3.17;1.27;;;15.00;99.90;;;;;;6195735;23;20021;-95
2022/06/12 22:40:11;;;;;;;4.18;1.40;;;15.00;99.90;;;;;;6193199;23;20016;-92
2022/06/12 22:42:40;;;;;;;3.17;1.60;;;15.00;99.90;;;;;;6194214;23;20102;-92
2022/06/12 22:45:15;;;;;;;4.15;1.67;;;14.90;99.90;;;;;;6195027;23;20013;-95
2022/06/12 22:47:44;;;;;;;3.50;1.25;;;14.90;99.90;;;;;;6191662;23;20024;-93
2022/06/12 22:50:09;;;;;;;3.00;1.58;;;15.00;99.90;;;;;;6189804;23;20019;-91
2022/06/12 22:52:35;;;;;;;5.55;1.67;;;15.00;99.90;;;;;;6190985;23;20021;-92
2022/06/12 22:55:02;;;;;;;4.18;1.50;;;15.00;99.90;;;;;;6201067;23;20003;-92
2022/06/12 22:57:28;;;;;;;4.88;1.48;;;15.00;99.90;;;;;;6248655;22;20340;-95
2022/06/12 23:24:30;;;;;;;4.68;1.92;;;14.90;99.90;;;;;;6276078;22;20388;-93
2022/06/12 23:27:03;;;;;;;5.70;1.90;;;14.90;99.90;;;;;;6251737;22;20045;-90
2022/06/12 23:29:28;;;;;;;5.40;1.50;;;14.90;99.90;;;;;;6277506;22;20016;-91
2022/06/12 23:31:54;;;;;;;6.53;1.60;;;14.90;99.90;;;;;;6253560;22;20043;-90
2022/06/12 23:34:20;;;;;;;6.18;1.77;;;14.80;99.90;;;;;;6252827;22;20023;-91
2022/06/12 23:36:47;;;;;;;5.00;1.90;;;14.90;99.90;;;;;;6251752;22;20019;-89
2022/06/12 23:39:14;;;;;;;4.70;1.70;;;14.80;99.90;;;;;;6253373;22;20016;-94
2022/06/12 23:41:41;;;;;;;6.93;1.95;;;14.80;99.90;;;;;;6254406;22;20047;-91
2022/06/12 23:44:07;;;;;;;4.22;1.88;;;14.80;99.90;;;;;;6250896;22;20015;-91
2022/06/12 23:46:36;;;;;;;4.53;1.80;;;14.80;99.90;;;;;;6250881;22;20026;-93
2022/06/12 23:49:05;;;;;;;5.13;1.60;;;14.80;99.90;;;;;;6250568;22;20340;-90
2022/06/12 23:51:32;;;;;;;5.28;1.50;;;14.80;99.90;;;;;;6250502;22;20026;-90
2022/06/12 23:54:00;;;;;;;5.80;1.80;;;14.80;99.90;;;;;;6250796;22;20073;-88
2022/06/12 23:56:30;;;;;;;3.03;1.30;;;14.70;99.90;;;;;;6249326;22;20026;-90